Home

PKWA Terminal Aerodrome Forecast (TAF)small logo


TAF provided by NWS Guam
2014/09/18 12:24
TAF PKWA 181120Z 1812/1912 07007KT P6SM VCSH FEW020 SCT040 SCT120

      



Site Map | Contact Us | Copyright © 2007 Atmospheric Technology Services Company. All rights reserved.